sensor_id;sensor_type;location;lat;lon;timestamp;pressure;altitude;pressure_sealevel;temperature;humidity
29825;BME280;16713;52.916;12.834;2022-11-15T00:00:58;100863.34;;;5.64;77.76
29825;BME280;16713;52.916;12.834;2022-11-15T00:03:27;100859.81;;;5.55;78.21
29825;BME280;16713;52.916;12.834;2022-11-15T00:05:54;100850.69;;;5.51;78.04
29825;BME280;16713;52.916;12.834;2022-11-15T00:08:21;100843.81;;;5.54;78.44
29825;BME280;16713;52.916;12.834;2022-11-15T00:10:58;100841.72;;;5.51;78.21
29825;BME280;16713;52.916;12.834;2022-11-15T00:13:26;100846.53;;;5.71;77.74
29825;BME280;16713;52.916;12.834;2022-11-15T00:15:56;100848.63;;;5.65;77.27
29825;BME280;16713;52.916;12.834;2022-11-15T00:18:23;100853.28;;;5.73;77.63
29825;BME280;16713;52.916;12.834;2022-11-15T00:20:49;100854.06;;;5.74;76.11
29825;BME280;16713;52.916;12.834;2022-11-15T00:23:16;100838.75;;;5.13;77.33
29825;BME280;16713;52.916;12.834;2022-11-15T00:25:42;100833.31;;;5.13;78.48
29825;BME280;16713;52.916;12.834;2022-11-15T00:28:09;100830.72;;;5.08;78.44
29825;BME280;16713;52.916;12.834;2022-11-15T00:30:35;100828.50;;;5.10;78.76
29825;BME280;16713;52.916;12.834;2022-11-15T00:33:05;100824.50;;;5.08;77.83
29825;BME280;16713;52.916;12.834;2022-11-15T00:35:33;100824.81;;;5.06;78.77
29825;BME280;16713;52.916;12.834;2022-11-15T00:38:01;100825.53;;;5.29;77.85
29825;BME280;16713;52.916;12.834;2022-11-15T00:40:28;100823.84;;;5.02;77.93
29825;BME280;16713;52.916;12.834;2022-11-15T00:42:55;100831.84;;;5.07;79.01
29825;BME280;16713;52.916;12.834;2022-11-15T00:45:22;100827.25;;;5.25;77.38
29825;BME280;16713;52.916;12.834;2022-11-15T00:47:48;100827.13;;;5.30;77.60
29825;BME280;16713;52.916;12.834;2022-11-15T00:50:15;100817.19;;;5.34;77.39
29825;BME280;16713;52.916;12.834;2022-11-15T00:52:41;100831.75;;;5.29;75.99
29825;BME280;16713;52.916;12.834;2022-11-15T00:55:18;100829.97;;;5.25;76.66
29825;BME280;16713;52.916;12.834;2022-11-15T00:57:46;100822.78;;;5.20;76.12
29825;BME280;16713;52.916;12.834;2022-11-15T01:00:12;100813.13;;;5.06;74.91
29825;BME280;16713;52.916;12.834;2022-11-15T01:02:39;100814.81;;;4.84;74.30
29825;BME280;16713;52.916;12.834;2022-11-15T01:05:06;100806.66;;;4.84;75.13
29825;BME280;16713;52.916;12.834;2022-11-15T01:07:33;100814.19;;;4.87;74.22
29825;BME280;16713;52.916;12.834;2022-11-15T01:09:59;100806.34;;;4.86;73.81
29825;BME280;16713;52.916;12.834;2022-11-15T01:12:26;100804.03;;;4.62;73.56
29825;BME280;16713;52.916;12.834;2022-11-15T01:14:52;100800.44;;;4.53;73.50
29825;BME280;16713;52.916;12.834;2022-11-15T01:17:19;100798.22;;;4.55;71.66
29825;BME280;16713;52.916;12.834;2022-11-15T01:19:45;100800.44;;;4.53;72.46
29825;BME280;16713;52.916;12.834;2022-11-15T01:22:12;100793.78;;;4.37;72.59
29825;BME280;16713;52.916;12.834;2022-11-15T01:24:38;100783.75;;;4.16;72.22
29825;BME280;16713;52.916;12.834;2022-11-15T01:27:05;100787.63;;;4.23;71.33
29825;BME280;16713;52.916;12.834;2022-11-15T01:29:32;100767.34;;;4.21;71.16
29825;BME280;16713;52.916;12.834;2022-11-15T01:31:58;100776.44;;;4.16;72.21
29825;BME280;16713;52.916;12.834;2022-11-15T01:34:24;100764.25;;;4.14;72.01
29825;BME280;16713;52.916;12.834;2022-11-15T01:36:51;100770.50;;;4.14;71.98
29825;BME280;16713;52.916;12.834;2022-11-15T01:39:17;100780.66;;;4.09;72.11
29825;BME280;16713;52.916;12.834;2022-11-15T01:41:44;100757.06;;;4.09;72.68
29825;BME280;16713;52.916;12.834;2022-11-15T01:44:34;100750.03;;;4.08;71.87
29825;BME280;16713;52.916;12.834;2022-11-15T01:47:10;100764.56;;;4.12;73.52
29825;BME280;16713;52.916;12.834;2022-11-15T01:49:43;100753.72;;;4.12;73.66
29825;BME280;16713;52.916;12.834;2022-11-15T01:52:15;100747.16;;;4.13;73.86
29825;BME280;16713;52.916;12.834;2022-11-15T01:54:44;100749.28;;;4.16;73.19
29825;BME280;16713;52.916;12.834;2022-11-15T01:57:12;100751.56;;;4.23;73.50
29825;BME280;16713;52.916;12.834;2022-11-15T01:59:41;100746.59;;;4.25;75.26
29825;BME280;16713;52.916;12.834;2022-11-15T02:02:08;100754.16;;;4.36;74.84
29825;BME280;16713;52.916;12.834;2022-11-15T02:04:39;100741.53;;;4.32;75.41
29825;BME280;16713;52.916;12.834;2022-11-15T02:07:08;100748.31;;;4.43;75.37
29825;BME280;16713;52.916;12.834;2022-11-15T02:09:37;100748.00;;;4.44;74.08
29825;BME280;16713;52.916;12.834;2022-11-15T02:12:03;100755.34;;;4.44;74.37
29825;BME280;16713;52.916;12.834;2022-11-15T02:14:31;100753.03;;;4.37;73.98
29825;BME280;16713;52.916;12.834;2022-11-15T02:17:07;100761.06;;;4.42;72.92
29825;BME280;16713;52.916;12.834;2022-11-15T02:20:04;100754.94;;;4.28;73.41
29825;BME280;16713;52.916;12.834;2022-11-15T02:25:37;100753.16;;;4.24;71.90
29825;BME280;16713;52.916;12.834;2022-11-15T02:34:19;100767.28;;;4.12;72.84
29825;BME280;16713;52.916;12.834;2022-11-15T02:42:02;100756.38;;;4.04;72.36
29825;BME280;16713;52.916;12.834;2022-11-15T02:44:32;100751.75;;;4.04;71.99
29825;BME280;16713;52.916;12.834;2022-11-15T02:47:04;100752.06;;;4.03;72.39
29825;BME280;16713;52.916;12.834;2022-11-15T02:49:50;100743.22;;;3.97;71.45
29825;BME280;16713;52.916;12.834;2022-11-15T02:52:20;100750.72;;;3.92;72.86
29825;BME280;16713;52.916;12.834;2022-11-15T02:55:00;100743.19;;;3.89;72.44
29825;BME280;16713;52.916;12.834;2022-11-15T03:11:11;100729.03;;;3.70;71.23
29825;BME280;16713;52.916;12.834;2022-11-15T03:16:26;100734.25;;;3.66;71.03
29825;BME280;16713;52.916;12.834;2022-11-15T03:19:13;100736.59;;;3.59;70.74
29825;BME280;16713;52.916;12.834;2022-11-15T03:21:40;100735.63;;;3.55;71.75
29825;BME280;16713;52.916;12.834;2022-11-15T03:24:08;100737.69;;;3.36;72.02
29825;BME280;16713;52.916;12.834;2022-11-15T03:26:36;100739.66;;;3.44;71.70
29825;BME280;16713;52.916;12.834;2022-11-15T03:29:09;100736.75;;;3.40;71.74
29825;BME280;16713;52.916;12.834;2022-11-15T03:31:40;100731.34;;;3.40;71.44
29825;BME280;16713;52.916;12.834;2022-11-15T03:36:49;100742.19;;;3.40;70.84
29825;BME280;16713;52.916;12.834;2022-11-15T03:39:17;100736.63;;;3.10;71.57
29825;BME280;16713;52.916;12.834;2022-11-15T03:47:20;100736.03;;;3.13;72.19
29825;BME280;16713;52.916;12.834;2022-11-15T03:49:59;100733.31;;;3.13;72.99
29825;BME280;16713;52.916;12.834;2022-11-15T03:52:31;100727.78;;;3.18;72.42
29825;BME280;16713;52.916;12.834;2022-11-15T03:55:00;100729.88;;;3.21;73.23
29825;BME280;16713;52.916;12.834;2022-11-15T03:57:27;100721.25;;;3.19;72.56
29825;BME280;16713;52.916;12.834;2022-11-15T03:59:54;100723.34;;;3.22;72.57
29825;BME280;16713;52.916;12.834;2022-11-15T04:02:20;100725.50;;;3.11;73.36
29825;BME280;16713;52.916;12.834;2022-11-15T04:04:47;100724.97;;;3.23;72.33
29825;BME280;16713;52.916;12.834;2022-11-15T04:07:13;100725.59;;;3.20;73.21
29825;BME280;16713;52.916;12.834;2022-11-15T04:09:40;100725.16;;;3.26;73.52
29825;BME280;16713;52.916;12.834;2022-11-15T04:12:25;100728.16;;;3.25;73.35
29825;BME280;16713;52.916;12.834;2022-11-15T04:15:10;100730.38;;;3.23;72.23
29825;BME280;16713;52.916;12.834;2022-11-15T04:20:09;100727.47;;;3.19;71.99
29825;BME280;16713;52.916;12.834;2022-11-15T04:22:56;100720.88;;;3.12;72.40
29825;BME280;16713;52.916;12.834;2022-11-15T04:25:42;100722.69;;;3.16;72.34
29825;BME280;16713;52.916;12.834;2022-11-15T04:28:10;100723.81;;;3.02;72.42
29825;BME280;16713;52.916;12.834;2022-11-15T04:30:36;100719.06;;;3.07;71.96
29825;BME280;16713;52.916;12.834;2022-11-15T04:33:03;100718.47;;;3.10;72.10
29825;BME280;16713;52.916;12.834;2022-11-15T04:35:30;100711.84;;;3.16;72.26
29825;BME280;16713;52.916;12.834;2022-11-15T04:37:57;100704.13;;;3.10;71.57
29825;BME280;16713;52.916;12.834;2022-11-15T04:40:24;100705.31;;;3.17;71.75
29825;BME280;16713;52.916;12.834;2022-11-15T04:42:50;100708.31;;;3.16;72.35
29825;BME280;16713;52.916;12.834;2022-11-15T04:45:17;100714.53;;;3.16;72.57
29825;BME280;16713;52.916;12.834;2022-11-15T04:47:44;100713.13;;;3.19;72.50
29825;BME280;16713;52.916;12.834;2022-11-15T04:50:12;100708.22;;;3.21;72.02
29825;BME280;16713;52.916;12.834;2022-11-15T04:52:41;100707.41;;;3.20;71.74
29825;BME280;16713;52.916;12.834;2022-11-15T04:55:11;100707.09;;;3.22;71.88
29825;BME280;16713;52.916;12.834;2022-11-15T04:57:38;100705.03;;;3.05;72.01
29825;BME280;16713;52.916;12.834;2022-11-15T05:00:06;100714.53;;;3.16;72.51
29825;BME280;16713;52.916;12.834;2022-11-15T05:02:33;100710.91;;;3.21;72.75
29825;BME280;16713;52.916;12.834;2022-11-15T05:05:18;100702.28;;;3.19;72.04
29825;BME280;16713;52.916;12.834;2022-11-15T05:07:44;100711.13;;;3.24;73.66
29825;BME280;16713;52.916;12.834;2022-11-15T05:10:11;100696.56;;;3.20;73.35
29825;BME280;16713;52.916;12.834;2022-11-15T05:12:37;100705.91;;;3.14;72.74
29825;BME280;16713;52.916;12.834;2022-11-15T05:15:04;100702.88;;;3.29;72.47
29825;BME280;16713;52.916;12.834;2022-11-15T05:17:31;100711.31;;;3.28;73.22
29825;BME280;16713;52.916;12.834;2022-11-15T05:19:57;100714.50;;;3.30;72.09
29825;BME280;16713;52.916;12.834;2022-11-15T05:22:24;100715.31;;;3.30;72.91
29825;BME280;16713;52.916;12.834;2022-11-15T05:24:50;100711.63;;;3.26;72.87
29825;BME280;16713;52.916;12.834;2022-11-15T05:27:17;100710.19;;;3.29;74.68
29825;BME280;16713;52.916;12.834;2022-11-15T05:29:43;100717.47;;;3.42;73.97
29825;BME280;16713;52.916;12.834;2022-11-15T05:32:11;100718.47;;;3.46;73.95
29825;BME280;16713;52.916;12.834;2022-11-15T05:34:38;100721.25;;;3.55;74.99
29825;BME280;16713;52.916;12.834;2022-11-15T05:37:04;100720.81;;;3.61;75.49
29825;BME280;16713;52.916;12.834;2022-11-15T05:39:31;100720.38;;;3.68;75.87
29825;BME280;16713;52.916;12.834;2022-11-15T05:42:02;100716.88;;;3.67;75.60
29825;BME280;16713;52.916;12.834;2022-11-15T05:44:31;100718.97;;;3.70;75.93
29825;BME280;16713;52.916;12.834;2022-11-15T05:46:58;100709.63;;;3.76;75.52
29825;BME280;16713;52.916;12.834;2022-11-15T05:49:27;100707.38;;;3.78;75.12
29825;BME280;16713;52.916;12.834;2022-11-15T05:51:56;100709.09;;;3.96;74.46
29825;BME280;16713;52.916;12.834;2022-11-15T05:54:24;100714.03;;;3.72;74.85
29825;BME280;16713;52.916;12.834;2022-11-15T05:56:51;100710.47;;;3.85;76.47
29825;BME280;16713;52.916;12.834;2022-11-15T05:59:18;100708.72;;;3.89;74.40
29825;BME280;16713;52.916;12.834;2022-11-15T06:01:45;100716.00;;;3.80;74.48
29825;BME280;16713;52.916;12.834;2022-11-15T06:04:11;100711.63;;;3.93;75.57
29825;BME280;16713;52.916;12.834;2022-11-15T06:06:38;100717.19;;;3.66;73.41
29825;BME280;16713;52.916;12.834;2022-11-15T06:09:04;100716.50;;;3.82;74.23
29825;BME280;16713;52.916;12.834;2022-11-15T06:11:31;100723.16;;;3.76;72.93
29825;BME280;16713;52.916;12.834;2022-11-15T06:13:57;100704.97;;;3.77;73.05
29825;BME280;16713;52.916;12.834;2022-11-15T06:16:24;100707.50;;;3.73;74.00
29825;BME280;16713;52.916;12.834;2022-11-15T06:18:50;100720.88;;;3.70;73.60
29825;BME280;16713;52.916;12.834;2022-11-15T06:21:16;100713.19;;;3.63;73.93
29825;BME280;16713;52.916;12.834;2022-11-15T06:23:43;100716.09;;;3.67;72.94
29825;BME280;16713;52.916;12.834;2022-11-15T06:26:09;100721.19;;;3.68;74.98
29825;BME280;16713;52.916;12.834;2022-11-15T06:28:36;100720.38;;;3.68;74.19
29825;BME280;16713;52.916;12.834;2022-11-15T06:31:09;100723.91;;;3.68;73.81
29825;BME280;16713;52.916;12.834;2022-11-15T06:33:40;100722.28;;;3.67;74.65
29825;BME280;16713;52.916;12.834;2022-11-15T06:36:10;100722.47;;;3.71;75.69
29825;BME280;16713;52.916;12.834;2022-11-15T06:38:44;100718.16;;;3.47;75.64
29825;BME280;16713;52.916;12.834;2022-11-15T06:41:11;100715.00;;;3.54;75.78
29825;BME280;16713;52.916;12.834;2022-11-15T06:43:38;100728.22;;;3.47;75.07
29825;BME280;16713;52.916;12.834;2022-11-15T06:46:06;100724.00;;;3.41;75.85
29825;BME280;16713;52.916;12.834;2022-11-15T06:48:33;100730.22;;;3.41;75.77
29825;BME280;16713;52.916;12.834;2022-11-15T06:51:01;100741.56;;;3.43;76.43
29825;BME280;16713;52.916;12.834;2022-11-15T06:53:29;100746.94;;;3.57;75.96
29825;BME280;16713;52.916;12.834;2022-11-15T06:56:05;100754.16;;;3.62;75.89
29825;BME280;16713;52.916;12.834;2022-11-15T06:58:32;100758.25;;;3.73;76.16
29825;BME280;16713;52.916;12.834;2022-11-15T07:01:01;100754.09;;;3.75;75.73
29825;BME280;16713;52.916;12.834;2022-11-15T07:03:28;100750.34;;;3.85;75.22
29825;BME280;16713;52.916;12.834;2022-11-15T07:05:57;100747.50;;;3.68;75.71
29825;BME280;16713;52.916;12.834;2022-11-15T07:08:30;100745.59;;;3.68;77.07
29825;BME280;16713;52.916;12.834;2022-11-15T07:10:59;100747.09;;;3.74;75.99
29825;BME280;16713;52.916;12.834;2022-11-15T07:13:27;100741.59;;;3.66;75.74
29825;BME280;16713;52.916;12.834;2022-11-15T07:15:54;100748.56;;;3.58;76.91
29825;BME280;16713;52.916;12.834;2022-11-15T07:18:21;100754.09;;;3.75;76.22
29825;BME280;16713;52.916;12.834;2022-11-15T07:20:47;100757.53;;;3.89;76.22
29825;BME280;16713;52.916;12.834;2022-11-15T07:23:14;100756.31;;;3.73;76.13
29825;BME280;16713;52.916;12.834;2022-11-15T07:25:40;100756.25;;;3.65;77.89
29825;BME280;16713;52.916;12.834;2022-11-15T07:28:07;100755.75;;;3.63;78.34
29825;BME280;16713;52.916;12.834;2022-11-15T07:30:34;100755.56;;;3.59;76.82
29825;BME280;16713;52.916;12.834;2022-11-15T07:33:00;100764.72;;;3.85;77.68
29825;BME280;16713;52.916;12.834;2022-11-15T07:35:28;100760.69;;;4.05;77.32
29825;BME280;16713;52.916;12.834;2022-11-15T07:38:02;100758.78;;;3.83;77.64
29825;BME280;16713;52.916;12.834;2022-11-15T07:40:30;100759.41;;;4.02;77.12
29825;BME280;16713;52.916;12.834;2022-11-15T07:43:02;100762.13;;;3.80;77.92
29825;BME280;16713;52.916;12.834;2022-11-15T07:45:28;100754.25;;;3.92;78.40
29825;BME280;16713;52.916;12.834;2022-11-15T07:47:55;100752.63;;;3.91;78.94
29825;BME280;16713;52.916;12.834;2022-11-15T07:50:23;100761.56;;;3.92;78.38
29825;BME280;16713;52.916;12.834;2022-11-15T07:52:57;100754.47;;;3.82;78.95
29825;BME280;16713;52.916;12.834;2022-11-15T07:55:25;100750.47;;;4.02;79.39
29825;BME280;16713;52.916;12.834;2022-11-15T07:57:53;100755.22;;;3.96;79.18
29825;BME280;16713;52.916;12.834;2022-11-15T08:00:25;100753.59;;;4.17;78.92
29825;BME280;16713;52.916;12.834;2022-11-15T08:02:52;100749.38;;;4.33;78.41
29825;BME280;16713;52.916;12.834;2022-11-15T08:05:18;100749.28;;;4.16;79.67
29825;BME280;16713;52.916;12.834;2022-11-15T08:07:45;100742.50;;;4.36;78.65
29825;BME280;16713;52.916;12.834;2022-11-15T08:10:11;100743.72;;;4.43;78.14
29825;BME280;16713;52.916;12.834;2022-11-15T08:12:38;100737.81;;;4.50;78.87
29825;BME280;16713;52.916;12.834;2022-11-15T08:15:05;100751.09;;;4.60;77.99
29825;BME280;16713;52.916;12.834;2022-11-15T08:17:31;100749.34;;;4.55;78.77
29825;BME280;16713;52.916;12.834;2022-11-15T08:19:59;100753.81;;;4.60;78.70
29825;BME280;16713;52.916;12.834;2022-11-15T08:22:25;100753.91;;;4.77;79.39
29825;BME280;16713;52.916;12.834;2022-11-15T08:24:51;100755.41;;;4.92;78.88
29825;BME280;16713;52.916;12.834;2022-11-15T08:27:18;100756.34;;;4.96;79.42
29825;BME280;16713;52.916;12.834;2022-11-15T08:29:45;100749.81;;;5.05;78.46
29825;BME280;16713;52.916;12.834;2022-11-15T08:32:12;100750.97;;;5.13;78.59
29825;BME280;16713;52.916;12.834;2022-11-15T08:34:39;100750.66;;;5.14;79.12
29825;BME280;16713;52.916;12.834;2022-11-15T08:37:05;100753.84;;;5.25;79.05
29825;BME280;16713;52.916;12.834;2022-11-15T08:39:32;100753.53;;;5.26;79.35
29825;BME280;16713;52.916;12.834;2022-11-15T08:41:58;100753.41;;;5.40;79.56
29825;BME280;16713;52.916;12.834;2022-11-15T08:44:24;100740.44;;;5.45;79.67
29825;BME280;16713;52.916;12.834;2022-11-15T08:46:51;100744.91;;;5.50;78.95
29825;BME280;16713;52.916;12.834;2022-11-15T08:49:17;100751.66;;;5.61;78.92
29825;BME280;16713;52.916;12.834;2022-11-15T08:51:45;100750.53;;;5.45;79.88
29825;BME280;16713;52.916;12.834;2022-11-15T08:54:11;100757.22;;;5.64;79.30
29825;BME280;16713;52.916;12.834;2022-11-15T08:56:37;100751.00;;;5.64;79.47
29825;BME280;16713;52.916;12.834;2022-11-15T08:59:04;100752.94;;;5.72;80.16
29825;BME280;16713;52.916;12.834;2022-11-15T09:01:30;100745.56;;;5.81;80.41
29825;BME280;16713;52.916;12.834;2022-11-15T09:03:58;100745.06;;;5.87;79.90
29825;BME280;16713;52.916;12.834;2022-11-15T09:06:25;100737.06;;;5.91;80.37
29825;BME280;16713;52.916;12.834;2022-11-15T09:08:51;100735.75;;;5.97;79.88
29825;BME280;16713;52.916;12.834;2022-11-15T09:11:18;100740.28;;;5.93;80.13
29825;BME280;16713;52.916;12.834;2022-11-15T09:13:47;100740.56;;;6.00;80.69
29825;BME280;16713;52.916;12.834;2022-11-15T09:16:13;100736.53;;;6.06;80.44
29825;BME280;16713;52.916;12.834;2022-11-15T09:18:41;100738.00;;;6.12;80.92
29825;BME280;16713;52.916;12.834;2022-11-15T09:21:08;100734.13;;;6.21;81.70
29825;BME280;16713;52.916;12.834;2022-11-15T09:23:35;100726.88;;;6.25;80.77
29825;BME280;16713;52.916;12.834;2022-11-15T09:26:03;100736.97;;;6.33;80.78
29825;BME280;16713;52.916;12.834;2022-11-15T09:28:31;100726.41;;;6.32;81.25
29825;BME280;16713;52.916;12.834;2022-11-15T09:31:01;100735.81;;;6.43;81.29
29825;BME280;16713;52.916;12.834;2022-11-15T09:33:28;100730.53;;;6.47;81.38
29825;BME280;16713;52.916;12.834;2022-11-15T09:36:08;100722.00;;;6.57;81.30
29825;BME280;16713;52.916;12.834;2022-11-15T09:38:35;100724.72;;;6.57;81.59
29825;BME280;16713;52.916;12.834;2022-11-15T09:49:00;100720.72;;;6.83;80.55
29825;BME280;16713;52.916;12.834;2022-11-15T09:51:32;100715.75;;;6.85;81.60
29825;BME280;16713;52.916;12.834;2022-11-15T09:54:16;100721.50;;;6.92;80.76
29825;BME280;16713;52.916;12.834;2022-11-15T09:57:18;100712.53;;;6.92;81.48
29825;BME280;16713;52.916;12.834;2022-11-15T09:59:54;100711.81;;;7.03;80.81
29825;BME280;16713;52.916;12.834;2022-11-15T10:05:21;100703.63;;;7.03;82.27
29825;BME280;16713;52.916;12.834;2022-11-15T10:08:03;100698.44;;;7.10;82.52
29825;BME280;16713;52.916;12.834;2022-11-15T10:10:42;100689.47;;;7.10;81.97
29825;BME280;16713;52.916;12.834;2022-11-15T10:13:18;100681.69;;;7.20;82.18
29825;BME280;16713;52.916;12.834;2022-11-15T10:15:46;100685.22;;;7.21;83.18
29825;BME280;16713;52.916;12.834;2022-11-15T10:18:18;100683.75;;;7.23;82.55
29825;BME280;16713;52.916;12.834;2022-11-15T10:20:51;100677.88;;;7.33;82.01
29825;BME280;16713;52.916;12.834;2022-11-15T10:23:21;100666.16;;;7.33;81.32
29825;BME280;16713;52.916;12.834;2022-11-15T10:25:57;100666.84;;;7.30;80.17
29825;BME280;16713;52.916;12.834;2022-11-15T10:28:31;100662.31;;;7.34;81.69
29825;BME280;16713;52.916;12.834;2022-11-15T10:30:59;100661.31;;;7.38;80.94
29825;BME280;16713;52.916;12.834;2022-11-15T10:33:35;100653.00;;;7.35;81.87
29825;BME280;16713;52.916;12.834;2022-11-15T10:41:22;100645.94;;;7.54;83.36
29825;BME280;16713;52.916;12.834;2022-11-15T10:46:39;100641.38;;;7.58;82.12
29825;BME280;16713;52.916;12.834;2022-11-15T10:49:17;100635.03;;;7.66;82.58
29825;BME280;16713;52.916;12.834;2022-11-15T10:51:46;100630.84;;;7.69;83.54
29825;BME280;16713;52.916;12.834;2022-11-15T10:54:57;100627.44;;;7.72;82.59
29825;BME280;16713;52.916;12.834;2022-11-15T10:57:13;100615.28;;;7.82;83.47
29825;BME280;16713;52.916;12.834;2022-11-15T10:59:45;100610.97;;;7.81;83.39
29825;BME280;16713;52.916;12.834;2022-11-15T11:02:35;100601.13;;;7.88;83.61
29825;BME280;16713;52.916;12.834;2022-11-15T11:05:04;100595.78;;;7.92;82.08
29825;BME280;16713;52.916;12.834;2022-11-15T11:07:33;100592.84;;;7.97;83.57
29825;BME280;16713;52.916;12.834;2022-11-15T11:10:21;100594.53;;;8.01;83.31
29825;BME280;16713;52.916;12.834;2022-11-15T11:13:15;100596.50;;;8.13;83.75
29825;BME280;16713;52.916;12.834;2022-11-15T11:21:40;100588.88;;;8.30;82.96
29825;BME280;16713;52.916;12.834;2022-11-15T11:24:18;100580.78;;;8.34;82.67
29825;BME280;16713;52.916;12.834;2022-11-15T11:35:24;100565.50;;;8.45;82.99
29825;BME280;16713;52.916;12.834;2022-11-15T11:38:23;100575.63;;;8.56;83.15
29825;BME280;16713;52.916;12.834;2022-11-15T11:40:56;100576.53;;;8.60;83.38
29825;BME280;16713;52.916;12.834;2022-11-15T11:48:48;100573.91;;;8.64;81.99
29825;BME280;16713;52.916;12.834;2022-11-15T11:51:28;100565.59;;;8.72;82.26
29825;BME280;16713;52.916;12.834;2022-11-15T11:54:19;100567.16;;;8.73;82.66
29825;BME280;16713;52.916;12.834;2022-11-15T11:56:48;100569.56;;;8.75;81.95
29825;BME280;16713;52.916;12.834;2022-11-15T12:02:11;100570.66;;;8.86;81.72
29825;BME280;16713;52.916;12.834;2022-11-15T12:04:40;100568.63;;;8.83;82.46
29825;BME280;16713;52.916;12.834;2022-11-15T12:07:25;100564.50;;;8.89;82.32
29825;BME280;16713;52.916;12.834;2022-11-15T12:10:20;100563.38;;;8.90;81.21
29825;BME280;16713;52.916;12.834;2022-11-15T12:13:08;100557.56;;;8.91;81.39
29825;BME280;16713;52.916;12.834;2022-11-15T12:15:47;100556.53;;;8.84;80.72
29825;BME280;16713;52.916;12.834;2022-11-15T12:18:15;100556.63;;;8.87;81.44
29825;BME280;16713;52.916;12.834;2022-11-15T12:20:54;100550.94;;;8.92;81.25
29825;BME280;16713;52.916;12.834;2022-11-15T12:24:37;100551.28;;;8.91;81.48
29825;BME280;16713;52.916;12.834;2022-11-15T12:26:52;100542.25;;;8.90;81.31
29825;BME280;16713;52.916;12.834;2022-11-15T12:29:28;100534.88;;;8.91;81.18
29825;BME280;16713;52.916;12.834;2022-11-15T12:31:58;100539.09;;;8.88;82.39
29825;BME280;16713;52.916;12.834;2022-11-15T12:34:55;100536.44;;;8.92;81.74
29825;BME280;16713;52.916;12.834;2022-11-15T12:42:42;100534.72;;;8.99;80.81
29825;BME280;16713;52.916;12.834;2022-11-15T12:45:33;100540.28;;;9.03;82.51
29825;BME280;16713;52.916;12.834;2022-11-15T13:06:46;100520.16;;;9.23;81.32
29825;BME280;16713;52.916;12.834;2022-11-15T13:11:59;100518.59;;;9.22;80.36
29825;BME280;16713;52.916;12.834;2022-11-15T13:19:46;100518.06;;;9.32;80.54
29825;BME280;16713;52.916;12.834;2022-11-15T13:22:14;100517.88;;;9.25;81.13
29825;BME280;16713;52.916;12.834;2022-11-15T13:25:01;100512.41;;;9.25;80.62
29825;BME280;16713;52.916;12.834;2022-11-15T13:27:28;100507.28;;;9.24;79.77
29825;BME280;16713;52.916;12.834;2022-11-15T13:29:55;100512.84;;;9.27;81.41
29825;BME280;16713;52.916;12.834;2022-11-15T13:32:21;100504.72;;;9.31;81.87
29825;BME280;16713;52.916;12.834;2022-11-15T13:34:49;100503.41;;;9.40;79.87
29825;BME280;16713;52.916;12.834;2022-11-15T13:39:49;100498.19;;;9.35;80.22
29825;BME280;16713;52.916;12.834;2022-11-15T13:42:18;100504.31;;;9.44;79.68
29825;BME280;16713;52.916;12.834;2022-11-15T13:44:58;100508.88;;;9.40;80.94
29825;BME280;16713;52.916;12.834;2022-11-15T13:47:27;100502.03;;;9.46;80.56
29825;BME280;16713;52.916;12.834;2022-11-15T13:49:56;100507.22;;;9.51;80.78
29825;BME280;16713;52.916;12.834;2022-11-15T13:52:27;100513.59;;;9.55;81.07
29825;BME280;16713;52.916;12.834;2022-11-15T13:55:01;100510.50;;;9.57;79.70
29825;BME280;16713;52.916;12.834;2022-11-15T13:57:38;100509.88;;;9.48;78.30
29825;BME280;16713;52.916;12.834;2022-11-15T14:02:50;100506.44;;;9.51;80.47
29825;BME280;16713;52.916;12.834;2022-11-15T14:05:22;100510.50;;;9.57;79.72
29825;BME280;16713;52.916;12.834;2022-11-15T14:08:05;100504.56;;;9.55;79.52
29825;BME280;16713;52.916;12.834;2022-11-15T14:10:39;100514.75;;;9.54;80.17
29825;BME280;16713;52.916;12.834;2022-11-15T14:13:26;100510.41;;;9.53;79.05
29825;BME280;16713;52.916;12.834;2022-11-15T14:15:53;100507.31;;;9.55;79.92
29825;BME280;16713;52.916;12.834;2022-11-15T14:18:46;100506.34;;;9.47;80.64
29825;BME280;16713;52.916;12.834;2022-11-15T14:21:13;100508.88;;;9.40;80.14
29825;BME280;16713;52.916;12.834;2022-11-15T14:23:40;100505.03;;;9.41;80.04
29825;BME280;16713;52.916;12.834;2022-11-15T14:26:29;100501.03;;;9.39;79.67
29825;BME280;16713;52.916;12.834;2022-11-15T14:28:56;100500.50;;;9.33;79.91
29825;BME280;16713;52.916;12.834;2022-11-15T14:31:22;100501.38;;;9.37;80.17
29825;BME280;16713;52.916;12.834;2022-11-15T14:33:49;100500.75;;;9.28;80.07
29825;BME280;16713;52.916;12.834;2022-11-15T14:36:18;100502.34;;;9.29;80.32
29825;BME280;16713;52.916;12.834;2022-11-15T14:38:45;100495.81;;;9.34;80.19
29825;BME280;16713;52.916;12.834;2022-11-15T14:41:23;100496.09;;;9.29;81.09
29825;BME280;16713;52.916;12.834;2022-11-15T14:43:51;100486.00;;;9.33;79.54
29825;BME280;16713;52.916;12.834;2022-11-15T14:46:18;100487.06;;;9.28;80.33
29825;BME280;16713;52.916;12.834;2022-11-15T14:48:45;100486.16;;;9.24;80.11
29825;BME280;16713;52.916;12.834;2022-11-15T14:51:21;100488.34;;;9.18;80.39
29825;BME280;16713;52.916;12.834;2022-11-15T14:53:48;100480.28;;;9.22;80.73
29825;BME280;16713;52.916;12.834;2022-11-15T14:56:15;100477.31;;;9.15;80.90
29825;BME280;16713;52.916;12.834;2022-11-15T14:58:42;100479.34;;;9.18;79.95
29825;BME280;16713;52.916;12.834;2022-11-15T15:01:16;100473.88;;;9.18;80.47
29825;BME280;16713;52.916;12.834;2022-11-15T15:03:43;100471.47;;;9.16;80.59
29825;BME280;16713;52.916;12.834;2022-11-15T15:06:10;100466.47;;;9.18;79.86
29825;BME280;16713;52.916;12.834;2022-11-15T15:08:44;100463.53;;;9.11;79.50